sensor_id;sensor_type;location;lat;lon;timestamp;pressure;altitude;pressure_sealevel;temperature;humidity
4598;BME280;62772;48.646;8.906;2023-05-23T00:03:45;96150.47;;;14.12;100.00
4598;BME280;62772;48.646;8.906;2023-05-23T00:08:46;96140.06;;;14.36;100.00
4598;BME280;62772;48.646;8.906;2023-05-23T00:13:47;96142.94;;;14.67;100.00
4598;BME280;62772;48.646;8.906;2023-05-23T00:18:48;96142.97;;;14.30;100.00
4598;BME280;62772;48.646;8.906;2023-05-23T00:23:49;96138.38;;;14.31;100.00
4598;BME280;62772;48.646;8.906;2023-05-23T00:28:49;96146.63;;;13.52;100.00
4598;BME280;62772;48.646;8.906;2023-05-23T00:33:50;96152.59;;;13.94;100.00
4598;BME280;62772;48.646;8.906;2023-05-23T00:38:50;96144.50;;;13.45;100.00
4598;BME280;62772;48.646;8.906;2023-05-23T00:43:52;96143.72;;;13.45;100.00
4598;BME280;62772;48.646;8.906;2023-05-23T00:48:55;96153.97;;;13.42;100.00
4598;BME280;62772;48.646;8.906;2023-05-23T00:53:56;96144.22;;;13.96;100.00
4598;BME280;62772;48.646;8.906;2023-05-23T00:59:00;96152.59;;;13.94;100.00
4598;BME280;62772;48.646;8.906;2023-05-23T01:04:00;96161.44;;;13.95;100.00
4598;BME280;62772;48.646;8.906;2023-05-23T01:09:02;96164.94;;;14.08;100.00
4598;BME280;62772;48.646;8.906;2023-05-23T01:14:18;96153.91;;;13.51;100.00
4598;BME280;62772;48.646;8.906;2023-05-23T01:19:47;96165.47;;;13.76;100.00
4598;BME280;62772;48.646;8.906;2023-05-23T01:24:54;96175.28;;;13.72;100.00
4598;BME280;62772;48.646;8.906;2023-05-23T01:29:57;96165.25;;;13.82;100.00
4598;BME280;62772;48.646;8.906;2023-05-23T01:34:59;96165.44;;;14.50;100.00
4598;BME280;62772;48.646;8.906;2023-05-23T01:40:00;96170.38;;;14.48;100.00
4598;BME280;62772;48.646;8.906;2023-05-23T01:45:01;96170.47;;;14.77;100.00
4598;BME280;62772;48.646;8.906;2023-05-23T01:50:02;96165.31;;;14.59;100.00
4598;BME280;62772;48.646;8.906;2023-05-23T01:55:04;96175.50;;;14.78;100.00
4598;BME280;62772;48.646;8.906;2023-05-23T02:00:09;96175.44;;;14.62;100.00
4598;BME280;62772;48.646;8.906;2023-05-23T02:05:14;96176.09;;;15.00;100.00
4598;BME280;62772;48.646;8.906;2023-05-23T02:10:15;96172.84;;;15.07;100.00
4598;BME280;62772;48.646;8.906;2023-05-23T02:15:15;96161.06;;;15.11;100.00
4598;BME280;62772;48.646;8.906;2023-05-23T02:20:16;96169.75;;;14.92;100.00
4598;BME280;62772;48.646;8.906;2023-05-23T02:25:18;96160.94;;;15.08;100.00
4598;BME280;62772;48.646;8.906;2023-05-23T02:30:18;96168.63;;;14.93;100.00
4598;BME280;62772;48.646;8.906;2023-05-23T02:35:19;96170.09;;;15.19;100.00
4598;BME280;62772;48.646;8.906;2023-05-23T02:40:19;96178.56;;;15.05;100.00
4598;BME280;62772;48.646;8.906;2023-05-23T02:45:20;96182.78;;;15.06;100.00
4598;BME280;62772;48.646;8.906;2023-05-23T02:50:20;96167.34;;;14.75;100.00
4598;BME280;62772;48.646;8.906;2023-05-23T02:55:21;96176.66;;;14.52;100.00
4598;BME280;62772;48.646;8.906;2023-05-23T03:00:24;96182.91;;;14.44;100.00
4598;BME280;62772;48.646;8.906;2023-05-23T03:05:28;96184.91;;;14.47;100.00
4598;BME280;62772;48.646;8.906;2023-05-23T03:10:28;96178.72;;;14.84;100.00
4598;BME280;62772;48.646;8.906;2023-05-23T03:15:29;96176.63;;;14.77;100.00
4598;BME280;62772;48.646;8.906;2023-05-23T03:20:29;96182.66;;;14.86;100.00
4598;BME280;62772;48.646;8.906;2023-05-23T03:25:30;96186.72;;;14.68;100.00
4598;BME280;62772;48.646;8.906;2023-05-23T03:30:30;96179.63;;;14.76;100.00
4598;BME280;62772;48.646;8.906;2023-05-23T03:35:31;96195.78;;;14.76;100.00
4598;BME280;62772;48.646;8.906;2023-05-23T03:40:31;96196.91;;;14.75;100.00
4598;BME280;62772;48.646;8.906;2023-05-23T03:45:33;96197.25;;;14.73;100.00
4598;BME280;62772;48.646;8.906;2023-05-23T03:50:37;96201.28;;;14.67;100.00
4598;BME280;62772;48.646;8.906;2023-05-23T03:55:38;96195.91;;;14.67;100.00
4598;BME280;62772;48.646;8.906;2023-05-23T04:00:39;96194.56;;;14.61;100.00
4598;BME280;62772;48.646;8.906;2023-05-23T04:05:42;96200.28;;;14.72;100.00
4598;BME280;62772;48.646;8.906;2023-05-23T04:10:43;96197.00;;;14.78;100.00
4598;BME280;62772;48.646;8.906;2023-05-23T04:15:44;96197.69;;;14.63;100.00
4598;BME280;62772;48.646;8.906;2023-05-23T04:20:46;96203.72;;;14.72;100.00
4598;BME280;62772;48.646;8.906;2023-05-23T04:25:47;96199.72;;;14.66;100.00
4598;BME280;62772;48.646;8.906;2023-05-23T04:30:59;96202.72;;;14.77;100.00
4598;BME280;62772;48.646;8.906;2023-05-23T04:36:04;96211.19;;;14.91;100.00
4598;BME280;62772;48.646;8.906;2023-05-23T04:41:09;96215.06;;;14.65;100.00
4598;BME280;62772;48.646;8.906;2023-05-23T04:46:41;96221.44;;;14.61;100.00
4598;BME280;62772;48.646;8.906;2023-05-23T04:51:55;96218.88;;;14.64;100.00
4598;BME280;62772;48.646;8.906;2023-05-23T04:57:03;96230.72;;;14.76;100.00
4598;BME280;62772;48.646;8.906;2023-05-23T05:02:04;96235.75;;;14.65;100.00
4598;BME280;62772;48.646;8.906;2023-05-23T05:07:06;96240.34;;;14.52;100.00
4598;BME280;62772;48.646;8.906;2023-05-23T05:12:07;96253.13;;;14.80;100.00
4598;BME280;62772;48.646;8.906;2023-05-23T05:17:08;96255.81;;;14.67;100.00
4598;BME280;62772;48.646;8.906;2023-05-23T05:22:17;96256.47;;;14.40;100.00
4598;BME280;62772;48.646;8.906;2023-05-23T05:27:19;96255.69;;;14.51;100.00
4598;BME280;62772;48.646;8.906;2023-05-23T05:32:19;96260.84;;;14.69;100.00
4598;BME280;62772;48.646;8.906;2023-05-23T05:37:20;96262.19;;;14.38;100.00
4598;BME280;62772;48.646;8.906;2023-05-23T05:42:21;96262.16;;;14.50;100.00
4598;BME280;62772;48.646;8.906;2023-05-23T05:47:22;96261.53;;;14.41;100.00
4598;BME280;62772;48.646;8.906;2023-05-23T05:52:23;96266.88;;;14.54;100.00
4598;BME280;62772;48.646;8.906;2023-05-23T05:57:24;96266.66;;;14.46;100.00
4598;BME280;62772;48.646;8.906;2023-05-23T06:02:24;96266.06;;;14.28;100.00
4598;BME280;62772;48.646;8.906;2023-05-23T06:07:26;96263.19;;;14.33;100.00
4598;BME280;62772;48.646;8.906;2023-05-23T06:12:26;96266.31;;;14.36;100.00
4598;BME280;62772;48.646;8.906;2023-05-23T06:17:27;96262.50;;;14.24;100.00
4598;BME280;62772;48.646;8.906;2023-05-23T06:22:28;96272.94;;;14.63;100.00
4598;BME280;62772;48.646;8.906;2023-05-23T06:27:28;96271.25;;;14.58;100.00
4598;BME280;62772;48.646;8.906;2023-05-23T06:32:29;96277.53;;;14.50;100.00
4598;BME280;62772;48.646;8.906;2023-05-23T06:37:29;96276.72;;;14.37;100.00
4598;BME280;62772;48.646;8.906;2023-05-23T06:42:30;96286.16;;;14.43;100.00
4598;BME280;62772;48.646;8.906;2023-05-23T06:48:03;96284.69;;;14.58;100.00
4598;BME280;62772;48.646;8.906;2023-05-23T06:53:06;96292.97;;;14.41;100.00
4598;BME280;62772;48.646;8.906;2023-05-23T06:58:07;96295.75;;;14.44;100.00
4598;BME280;62772;48.646;8.906;2023-05-23T07:03:10;96301.25;;;14.48;100.00
4598;BME280;62772;48.646;8.906;2023-05-23T07:08:12;96306.97;;;14.46;100.00
4598;BME280;62772;48.646;8.906;2023-05-23T07:13:16;96321.19;;;14.47;100.00
4598;BME280;62772;48.646;8.906;2023-05-23T07:18:17;96324.72;;;14.26;100.00
4598;BME280;62772;48.646;8.906;2023-05-23T07:23:18;96314.44;;;14.28;100.00
4598;BME280;62772;48.646;8.906;2023-05-23T07:28:21;96332.56;;;14.19;100.00
4598;BME280;62772;48.646;8.906;2023-05-23T07:33:22;96327.22;;;13.98;100.00
4598;BME280;62772;48.646;8.906;2023-05-23T07:38:25;96335.94;;;13.95;100.00
4598;BME280;62772;48.646;8.906;2023-05-23T07:43:26;96335.38;;;14.23;100.00
4598;BME280;62772;48.646;8.906;2023-05-23T07:48:26;96335.06;;;13.91;100.00
4598;BME280;62772;48.646;8.906;2023-05-23T07:53:26;96351.88;;;13.79;100.00
4598;BME280;62772;48.646;8.906;2023-05-23T07:58:27;96335.53;;;13.72;100.00
4598;BME280;62772;48.646;8.906;2023-05-23T08:03:28;96341.91;;;14.01;100.00
4598;BME280;62772;48.646;8.906;2023-05-23T08:08:38;96348.88;;;14.14;100.00
4598;BME280;62772;48.646;8.906;2023-05-23T08:13:41;96350.22;;;14.20;100.00
4598;BME280;62772;48.646;8.906;2023-05-23T08:19:08;96354.94;;;14.23;100.00
4598;BME280;62772;48.646;8.906;2023-05-23T08:24:08;96359.66;;;14.26;100.00
4598;BME280;62772;48.646;8.906;2023-05-23T08:29:10;96375.56;;;13.98;100.00
4598;BME280;62772;48.646;8.906;2023-05-23T08:34:10;96374.50;;;14.11;100.00
4598;BME280;62772;48.646;8.906;2023-05-23T08:39:13;96375.00;;;14.26;100.00
4598;BME280;62772;48.646;8.906;2023-05-23T08:44:20;96376.72;;;14.55;100.00
4598;BME280;62772;48.646;8.906;2023-05-23T08:49:25;96387.69;;;14.50;100.00
4598;BME280;62772;48.646;8.906;2023-05-23T08:54:26;96394.97;;;14.49;100.00
4598;BME280;62772;48.646;8.906;2023-05-23T08:59:29;96392.59;;;14.36;100.00
4598;BME280;62772;48.646;8.906;2023-05-23T09:04:31;96402.00;;;14.42;100.00
4598;BME280;62772;48.646;8.906;2023-05-23T09:09:36;96399.13;;;14.59;100.00
4598;BME280;62772;48.646;8.906;2023-05-23T09:14:39;96400.38;;;14.28;100.00
4598;BME280;62772;48.646;8.906;2023-05-23T09:19:42;96411.41;;;14.81;100.00
4598;BME280;62772;48.646;8.906;2023-05-23T09:24:54;96410.59;;;14.81;100.00
4598;BME280;62772;48.646;8.906;2023-05-23T09:29:55;96417.88;;;14.80;100.00
4598;BME280;62772;48.646;8.906;2023-05-23T09:35:01;96419.47;;;14.81;100.00
4598;BME280;62772;48.646;8.906;2023-05-23T09:40:09;96415.44;;;15.00;100.00
4598;BME280;62772;48.646;8.906;2023-05-23T09:45:15;96419.28;;;15.11;100.00
4598;BME280;62772;48.646;8.906;2023-05-23T09:50:15;96428.56;;;14.89;100.00
4598;BME280;62772;48.646;8.906;2023-05-23T09:55:16;96427.75;;;14.76;100.00
4598;BME280;62772;48.646;8.906;2023-05-23T10:00:17;96422.91;;;14.69;100.00
4598;BME280;62772;48.646;8.906;2023-05-23T10:05:30;96427.41;;;14.78;100.00
4598;BME280;62772;48.646;8.906;2023-05-23T10:10:32;96437.19;;;15.07;100.00
4598;BME280;62772;48.646;8.906;2023-05-23T10:15:38;96434.03;;;15.17;100.00
4598;BME280;62772;48.646;8.906;2023-05-23T10:20:42;96424.06;;;15.30;100.00
4598;BME280;62772;48.646;8.906;2023-05-23T10:25:44;96431.44;;;15.46;100.00
4598;BME280;62772;48.646;8.906;2023-05-23T10:30:45;96424.53;;;15.45;100.00
4598;BME280;62772;48.646;8.906;2023-05-23T10:36:07;96431.22;;;15.51;100.00
4598;BME280;62772;48.646;8.906;2023-05-23T10:41:30;96428.66;;;15.54;100.00
4598;BME280;62772;48.646;8.906;2023-05-23T10:51:50;96424.13;;;15.83;100.00
4598;BME280;62772;48.646;8.906;2023-05-23T10:57:04;96418.41;;;15.85;100.00
4598;BME280;62772;48.646;8.906;2023-05-23T11:02:12;96421.78;;;15.57;100.00
4598;BME280;62772;48.646;8.906;2023-05-23T11:07:29;96424.13;;;15.71;100.00
4598;BME280;62772;48.646;8.906;2023-05-23T11:12:43;96424.56;;;15.85;100.00
4598;BME280;62772;48.646;8.906;2023-05-23T11:17:57;96429.75;;;15.78;100.00
4598;BME280;62772;48.646;8.906;2023-05-23T11:23:02;96423.66;;;15.81;100.00
4598;BME280;62772;48.646;8.906;2023-05-23T11:28:03;96433.44;;;16.14;100.00
4598;BME280;62772;48.646;8.906;2023-05-23T11:33:08;96434.13;;;16.11;100.00
4598;BME280;62772;48.646;8.906;2023-05-23T11:38:15;96430.75;;;16.14;100.00
4598;BME280;62772;48.646;8.906;2023-05-23T11:43:16;96432.63;;;15.98;100.00
4598;BME280;62772;48.646;8.906;2023-05-23T11:48:17;96440.81;;;15.89;100.00
4598;BME280;62772;48.646;8.906;2023-05-23T11:53:20;96426.78;;;15.95;100.00
4598;BME280;62772;48.646;8.906;2023-05-23T11:58:22;96419.38;;;16.21;100.00
4598;BME280;62772;48.646;8.906;2023-05-23T12:03:25;96413.88;;;16.45;100.00
4598;BME280;62772;48.646;8.906;2023-05-23T12:08:25;96421.72;;;16.22;100.00
4598;BME280;62772;48.646;8.906;2023-05-23T12:13:29;96415.22;;;16.23;100.00
4598;BME280;62772;48.646;8.906;2023-05-23T12:18:31;96411.34;;;16.37;100.00
4598;BME280;62772;48.646;8.906;2023-05-23T12:23:31;96415.09;;;16.48;100.00
4598;BME280;62772;48.646;8.906;2023-05-23T12:28:36;96416.41;;;16.54;100.00
4598;BME280;62772;48.646;8.906;2023-05-23T12:33:40;96410.94;;;16.50;100.00
4598;BME280;62772;48.646;8.906;2023-05-23T12:38:43;96405.41;;;17.07;100.00
4598;BME280;62772;48.646;8.906;2023-05-23T12:43:53;96391.72;;;16.68;100.00
4598;BME280;62772;48.646;8.906;2023-05-23T12:48:54;96395.06;;;17.09;100.00
4598;BME280;62772;48.646;8.906;2023-05-23T12:53:54;96396.53;;;17.07;100.00
4598;BME280;62772;48.646;8.906;2023-05-23T12:58:56;96397.81;;;16.81;100.00
4598;BME280;62772;48.646;8.906;2023-05-23T13:03:57;96394.44;;;17.00;100.00
4598;BME280;62772;48.646;8.906;2023-05-23T13:08:57;96404.44;;;16.83;100.00
4598;BME280;62772;48.646;8.906;2023-05-23T13:13:58;96397.81;;;16.65;100.00
4598;BME280;62772;48.646;8.906;2023-05-23T13:18:58;96390.44;;;16.94;100.00
4598;BME280;62772;48.646;8.906;2023-05-23T13:23:59;96381.88;;;17.23;97.76
4598;BME280;62772;48.646;8.906;2023-05-23T13:28:59;96378.34;;;17.55;100.00
4598;BME280;62772;48.646;8.906;2023-05-23T13:34:00;96387.41;;;17.47;94.06
4598;BME280;62772;48.646;8.906;2023-05-23T13:39:01;96390.59;;;17.33;98.59
4598;BME280;62772;48.646;8.906;2023-05-23T13:44:01;96386.06;;;17.21;98.81
4598;BME280;62772;48.646;8.906;2023-05-23T13:49:01;96392.44;;;17.13;100.00
4598;BME280;62772;48.646;8.906;2023-05-23T13:54:05;96394.31;;;16.32;100.00
4598;BME280;62772;48.646;8.906;2023-05-23T13:59:05;96396.00;;;16.85;100.00
4598;BME280;62772;48.646;8.906;2023-05-23T14:04:06;96399.94;;;16.88;100.00
4598;BME280;62772;48.646;8.906;2023-05-23T14:09:06;96395.44;;;16.47;100.00
4598;BME280;62772;48.646;8.906;2023-05-23T14:14:07;96399.88;;;16.40;100.00
4598;BME280;62772;48.646;8.906;2023-05-23T14:19:07;96400.50;;;16.49;100.00
4598;BME280;62772;48.646;8.906;2023-05-23T14:24:08;96396.84;;;16.73;100.00
4598;BME280;62772;48.646;8.906;2023-05-23T14:29:08;96410.75;;;16.43;100.00
4598;BME280;62772;48.646;8.906;2023-05-23T14:34:08;96396.75;;;16.54;100.00
4598;BME280;62772;48.646;8.906;2023-05-23T14:39:09;96400.34;;;16.74;100.00
4598;BME280;62772;48.646;8.906;2023-05-23T14:44:10;96399.50;;;17.01;100.00
4598;BME280;62772;48.646;8.906;2023-05-23T14:49:10;96401.50;;;16.89;100.00
4598;BME280;62772;48.646;8.906;2023-05-23T14:54:11;96398.19;;;17.11;100.00
4598;BME280;62772;48.646;8.906;2023-05-23T14:59:12;96392.41;;;16.65;100.00
4598;BME280;62772;48.646;8.906;2023-05-23T15:04:12;96392.00;;;17.11;100.00
4598;BME280;62772;48.646;8.906;2023-05-23T15:09:13;96394.00;;;16.66;100.00
4598;BME280;62772;48.646;8.906;2023-05-23T15:14:14;96392.97;;;16.71;100.00
4598;BME280;62772;48.646;8.906;2023-05-23T15:19:15;96385.06;;;16.94;100.00
4598;BME280;62772;48.646;8.906;2023-05-23T15:24:16;96384.53;;;17.04;100.00
4598;BME280;62772;48.646;8.906;2023-05-23T15:29:16;96374.56;;;17.24;100.00
4598;BME280;62772;48.646;8.906;2023-05-23T15:34:17;96371.50;;;17.26;100.00
4598;BME280;62772;48.646;8.906;2023-05-23T15:39:17;96372.31;;;17.62;100.00
4598;BME280;62772;48.646;8.906;2023-05-23T15:44:18;96371.66;;;17.68;97.72
4598;BME280;62772;48.646;8.906;2023-05-23T15:49:21;96382.31;;;17.61;98.34
4598;BME280;62772;48.646;8.906;2023-05-23T15:54:21;96394.19;;;17.05;100.00
4598;BME280;62772;48.646;8.906;2023-05-23T15:59:22;96383.91;;;17.11;100.00
4598;BME280;62772;48.646;8.906;2023-05-23T16:04:22;96383.13;;;17.10;100.00
4598;BME280;62772;48.646;8.906;2023-05-23T16:09:23;96379.44;;;17.34;100.00
4598;BME280;62772;48.646;8.906;2023-05-23T16:14:23;96380.56;;;17.33;100.00
4598;BME280;62772;48.646;8.906;2023-05-23T16:19:24;96380.69;;;17.56;100.00
4598;BME280;62772;48.646;8.906;2023-05-23T16:24:24;96367.63;;;17.23;100.00
4598;BME280;62772;48.646;8.906;2023-05-23T16:29:27;96370.91;;;17.16;100.00
4598;BME280;62772;48.646;8.906;2023-05-23T16:34:27;96381.09;;;17.58;95.19
4598;BME280;62772;48.646;8.906;2023-05-23T16:39:28;96374.47;;;17.56;100.00
4598;BME280;62772;48.646;8.906;2023-05-23T16:44:28;96369.41;;;16.99;100.00
4598;BME280;62772;48.646;8.906;2023-05-23T16:49:29;96359.53;;;17.23;100.00
4598;BME280;62772;48.646;8.906;2023-05-23T16:54:29;96368.78;;;17.41;100.00
4598;BME280;62772;48.646;8.906;2023-05-23T16:59:29;96370.88;;;17.68;100.00
4598;BME280;62772;48.646;8.906;2023-05-23T17:04:31;96377.75;;;17.46;100.00
4598;BME280;62772;48.646;8.906;2023-05-23T17:09:31;96380.59;;;16.69;100.00
4598;BME280;62772;48.646;8.906;2023-05-23T17:14:32;96375.81;;;16.79;100.00
4598;BME280;62772;48.646;8.906;2023-05-23T17:19:33;96388.53;;;16.78;100.00
4598;BME280;62772;48.646;8.906;2023-05-23T17:24:34;96392.06;;;16.82;100.00
4598;BME280;62772;48.646;8.906;2023-05-23T17:29:36;96398.00;;;16.72;100.00
4598;BME280;62772;48.646;8.906;2023-05-23T17:34:36;96388.41;;;16.43;100.00
4598;BME280;62772;48.646;8.906;2023-05-23T17:39:37;96393.81;;;16.75;100.00
4598;BME280;62772;48.646;8.906;2023-05-23T17:44:37;96401.63;;;16.48;100.00
4598;BME280;62772;48.646;8.906;2023-05-23T17:49:38;96405.91;;;16.21;100.00
4598;BME280;62772;48.646;8.906;2023-05-23T17:54:40;96402.53;;;16.24;100.00
4598;BME280;62772;48.646;8.906;2023-05-23T17:59:41;96406.88;;;16.00;100.00
4598;BME280;62772;48.646;8.906;2023-05-23T18:04:41;96417.28;;;15.73;100.00
4598;BME280;62772;48.646;8.906;2023-05-23T18:09:42;96415.81;;;15.64;100.00
4598;BME280;62772;48.646;8.906;2023-05-23T18:14:42;96421.25;;;15.39;100.00
4598;BME280;62772;48.646;8.906;2023-05-23T18:19:44;96430.03;;;14.99;100.00
4598;BME280;62772;48.646;8.906;2023-05-23T18:24:45;96420.47;;;15.01;100.00
4598;BME280;62772;48.646;8.906;2023-05-23T18:29:46;96438.84;;;14.87;100.00
4598;BME280;62772;48.646;8.906;2023-05-23T18:34:46;96437.41;;;15.02;100.00
4598;BME280;62772;48.646;8.906;2023-05-23T18:39:47;96441.44;;;14.96;100.00
4598;BME280;62772;48.646;8.906;2023-05-23T18:44:47;96458.59;;;14.24;100.00
4598;BME280;62772;48.646;8.906;2023-05-23T18:49:47;96451.06;;;14.18;100.00
4598;BME280;62772;48.646;8.906;2023-05-23T18:54:49;96440.91;;;14.23;100.00
4598;BME280;62772;48.646;8.906;2023-05-23T18:59:52;96449.56;;;14.08;100.00
4598;BME280;62772;48.646;8.906;2023-05-23T19:04:53;96444.81;;;13.71;100.00
4598;BME280;62772;48.646;8.906;2023-05-23T19:09:53;96463.78;;;13.87;100.00
4598;BME280;62772;48.646;8.906;2023-05-23T19:14:54;96464.66;;;13.49;100.00
4598;BME280;62772;48.646;8.906;2023-05-23T19:19:54;96472.84;;;13.53;100.00
4598;BME280;62772;48.646;8.906;2023-05-23T19:24:55;96484.94;;;12.91;100.00
4598;BME280;62772;48.646;8.906;2023-05-23T19:29:56;96482.69;;;12.93;100.00
4598;BME280;62772;48.646;8.906;2023-05-23T19:34:57;96492.50;;;12.88;100.00
4598;BME280;62772;48.646;8.906;2023-05-23T19:39:57;96493.47;;;13.22;100.00
4598;BME280;62772;48.646;8.906;2023-05-23T19:44:58;96511.13;;;13.41;100.00
4598;BME280;62772;48.646;8.906;2023-05-23T19:49:59;96505.38;;;13.04;100.00
4598;BME280;62772;48.646;8.906;2023-05-23T19:54:59;96516.53;;;13.15;100.00
4598;BME280;62772;48.646;8.906;2023-05-23T20:00:00;96516.91;;;13.04;100.00
4598;BME280;62772;48.646;8.906;2023-05-23T20:05:01;96517.19;;;13.12;100.00
4598;BME280;62772;48.646;8.906;2023-05-23T20:10:02;96512.00;;;12.98;100.00
4598;BME280;62772;48.646;8.906;2023-05-23T20:15:03;96521.94;;;13.06;100.00
4598;BME280;62772;48.646;8.906;2023-05-23T20:20:04;96529.22;;;12.88;100.00
4598;BME280;62772;48.646;8.906;2023-05-23T20:25:05;96529.25;;;12.79;100.00
4598;BME280;62772;48.646;8.906;2023-05-23T20:30:07;96529.50;;;13.04;100.00
4598;BME280;62772;48.646;8.906;2023-05-23T20:35:08;96530.66;;;12.77;100.00
4598;BME280;62772;48.646;8.906;2023-05-23T20:40:09;96529.91;;;12.76;100.00
4598;BME280;62772;48.646;8.906;2023-05-23T20:45:10;96542.50;;;12.76;100.00
4598;BME280;62772;48.646;8.906;2023-05-23T20:50:10;96547.09;;;12.40;100.00
4598;BME280;62772;48.646;8.906;2023-05-23T20:55:14;96555.28;;;12.52;100.00
4598;BME280;62772;48.646;8.906;2023-05-23T21:00:14;96568.22;;;12.68;100.00
4598;BME280;62772;48.646;8.906;2023-05-23T21:05:15;96550.72;;;12.44;100.00
4598;BME280;62772;48.646;8.906;2023-05-23T21:10:16;96562.38;;;12.66;100.00
4598;BME280;62772;48.646;8.906;2023-05-23T21:15:17;96574.22;;;12.65;100.00
4598;BME280;62772;48.646;8.906;2023-05-23T21:20:18;96571.19;;;12.58;100.00
4598;BME280;62772;48.646;8.906;2023-05-23T21:25:21;96582.84;;;12.36;100.00
4598;BME280;62772;48.646;8.906;2023-05-23T21:30:22;96578.75;;;12.47;100.00
4598;BME280;62772;48.646;8.906;2023-05-23T21:35:22;96578.63;;;12.43;100.00
4598;BME280;62772;48.646;8.906;2023-05-23T21:40:23;96577.50;;;12.36;100.00
4598;BME280;62772;48.646;8.906;2023-05-23T21:45:24;96576.41;;;12.45;100.00
4598;BME280;62772;48.646;8.906;2023-05-23T21:50:25;96571.03;;;12.45;100.00
4598;BME280;62772;48.646;8.906;2023-05-23T21:55:25;96567.41;;;12.67;100.00
4598;BME280;62772;48.646;8.906;2023-05-23T22:00:26;96576.09;;;12.73;100.00
4598;BME280;62772;48.646;8.906;2023-05-23T22:05:26;96572.91;;;12.80;100.00
4598;BME280;62772;48.646;8.906;2023-05-23T22:10:27;96589.31;;;12.61;100.00
4598;BME280;62772;48.646;8.906;2023-05-23T22:15:27;96595.94;;;12.37;100.00
4598;BME280;62772;48.646;8.906;2023-05-23T22:20:28;96598.44;;;12.42;100.00
4598;BME280;62772;48.646;8.906;2023-05-23T22:25:37;96593.91;;;12.60;100.00
4598;BME280;62772;48.646;8.906;2023-05-23T22:30:38;96600.50;;;12.45;100.00
4598;BME280;62772;48.646;8.906;2023-05-23T22:35:39;96592.28;;;12.07;100.00
4598;BME280;62772;48.646;8.906;2023-05-23T22:40:40;96595.44;;;12.18;100.00
4598;BME280;62772;48.646;8.906;2023-05-23T22:45:40;96588.38;;;12.22;100.00
4598;BME280;62772;48.646;8.906;2023-05-23T22:50:41;96585.50;;;12.01;100.00
4598;BME280;62772;48.646;8.906;2023-05-23T22:55:43;96583.47;;;12.15;100.00
4598;BME280;62772;48.646;8.906;2023-05-23T23:00:44;96576.06;;;12.12;100.00
4598;BME280;62772;48.646;8.906;2023-05-23T23:05:44;96574.94;;;11.95;100.00
4598;BME280;62772;48.646;8.906;2023-05-23T23:10:45;96585.25;;;11.79;100.00
4598;BME280;62772;48.646;8.906;2023-05-23T23:15:46;96576.31;;;11.84;100.00
4598;BME280;62772;48.646;8.906;2023-05-23T23:20:48;96583.44;;;11.57;100.00
4598;BME280;62772;48.646;8.906;2023-05-23T23:25:49;96578.56;;;11.59;100.00
4598;BME280;62772;48.646;8.906;2023-05-23T23:30:49;96573.81;;;11.48;100.00
4598;BME280;62772;48.646;8.906;2023-05-23T23:35:49;96563.84;;;11.71;100.00
4598;BME280;62772;48.646;8.906;2023-05-23T23:40:50;96571.53;;;11.72;100.00
4598;BME280;62772;48.646;8.906;2023-05-23T23:45:51;96563.97;;;11.66;100.00
4598;BME280;62772;48.646;8.906;2023-05-23T23:50:51;96561.00;;;11.27;100.00
4598;BME280;62772;48.646;8.906;2023-05-23T23:55:52;96554.28;;;11.38;100.00
